createdAt,value
2022-11-29T00:01:25.317Z,10.60
2022-11-29T00:03:53.314Z,10.70
2022-11-29T00:06:23.101Z,10.70
2022-11-29T00:08:50.395Z,10.70
2022-11-29T00:11:39.108Z,10.70
2022-11-29T00:14:08.013Z,10.70
2022-11-29T00:16:35.591Z,10.70
2022-11-29T00:19:03.244Z,10.60
2022-11-29T00:21:30.452Z,10.60
2022-11-29T00:23:57.640Z,10.70
2022-11-29T00:26:24.845Z,10.60
2022-11-29T00:28:52.967Z,10.70
2022-11-29T00:31:22.957Z,10.60
2022-11-29T00:33:50.916Z,10.60
2022-11-29T00:36:18.793Z,10.60
2022-11-29T00:38:46.443Z,10.10
2022-11-29T00:41:13.891Z,10.60
2022-11-29T00:43:41.534Z,10.50
2022-11-29T00:46:09.769Z,10.50
2022-11-29T00:48:37.261Z,10.50
2022-11-29T00:51:05.923Z,10.50
2022-11-29T00:53:34.232Z,10.50
2022-11-29T00:56:02.672Z,10.50
2022-11-29T00:58:30.576Z,9.70
2022-11-29T01:00:57.976Z,10.50
2022-11-29T01:03:25.406Z,10.50
2022-11-29T01:05:52.836Z,10.50
2022-11-29T01:08:20.194Z,10.50
2022-11-29T01:10:47.385Z,10.50
2022-11-29T01:13:14.632Z,10.50
2022-11-29T01:15:42.118Z,10.50
2022-11-29T01:18:09.313Z,10.50
2022-11-29T01:20:36.425Z,10.50
2022-11-29T01:23:03.561Z,10.50
2022-11-29T01:25:32.056Z,10.50
2022-11-29T01:27:59.236Z,10.50
2022-11-29T01:30:26.438Z,10.50
2022-11-29T01:32:53.606Z,10.60
2022-11-29T01:35:23.946Z,10.60
2022-11-29T01:37:51.124Z,10.50
2022-11-29T01:40:18.404Z,10.50
2022-11-29T01:42:45.596Z,10.50
2022-11-29T01:45:24.656Z,10.50
2022-11-29T01:47:56.824Z,10.50
2022-11-29T01:50:24.425Z,10.50
2022-11-29T01:52:51.926Z,10.50
2022-11-29T01:55:19.424Z,10.40
2022-11-29T01:57:47.003Z,10.50
2022-11-29T02:00:17.641Z,10.40
2022-11-29T02:02:53.599Z,10.40
2022-11-29T02:05:22.171Z,10.40
2022-11-29T02:07:52.516Z,10.40
2022-11-29T02:10:20.368Z,10.40
2022-11-29T02:13:15.388Z,10.30
2022-11-29T02:15:45.917Z,10.30
2022-11-29T02:18:37.897Z,10.30
2022-11-29T02:21:28.597Z,10.40
2022-11-29T02:24:23.435Z,10.50
2022-11-29T02:27:09.215Z,10.50
2022-11-29T02:30:12.174Z,10.60
2022-11-29T02:32:48.260Z,10.50
2022-11-29T02:35:18.461Z,10.60
2022-11-29T02:38:09.856Z,10.50
2022-11-29T02:40:51.172Z,10.60
2022-11-29T02:43:59.047Z,10.50
2022-11-29T02:46:50.221Z,10.50
2022-11-29T02:49:44.115Z,10.40
2022-11-29T02:52:29.413Z,10.40
2022-11-29T02:55:33.394Z,10.40
2022-11-29T02:58:15.424Z,10.30
2022-11-29T03:00:51.398Z,10.30
2022-11-29T03:03:24.916Z,10.30
2022-11-29T03:06:11.859Z,10.30
2022-11-29T03:09:00.127Z,10.30
2022-11-29T03:11:38.313Z,10.40
2022-11-29T03:14:19.605Z,10.40
2022-11-29T03:17:24.716Z,10.40
2022-11-29T03:20:13.507Z,10.40
2022-11-29T03:23:06.100Z,10.40
2022-11-29T03:25:44.389Z,10.30
2022-11-29T03:28:40.806Z,10.20
2022-11-29T03:31:20.256Z,10.20
2022-11-29T03:33:59.315Z,10.10
2022-11-29T03:37:17.297Z,10.10
2022-11-29T03:39:44.484Z,12.40
2022-11-29T03:42:18.455Z,10.00
2022-11-29T03:44:56.176Z,10.00
2022-11-29T03:47:34.363Z,10.00
2022-11-29T03:50:06.427Z,10.00
2022-11-29T03:52:47.492Z,10.00
2022-11-29T03:55:29.331Z,10.00
2022-11-29T03:58:22.580Z,10.00
2022-11-29T04:00:49.722Z,9.90
2022-11-29T04:03:42.015Z,9.90
2022-11-29T04:06:46.885Z,9.90
2022-11-29T04:09:27.072Z,9.90
2022-11-29T04:12:49.360Z,9.90
2022-11-29T04:15:50.525Z,9.90
2022-11-29T04:18:35.557Z,9.90
2022-11-29T04:21:17.733Z,9.90
2022-11-29T04:24:38.991Z,9.90
2022-11-29T04:27:49.210Z,10.00
2022-11-29T04:30:23.501Z,9.90
2022-11-29T04:33:22.262Z,10.00
2022-11-29T04:36:28.292Z,10.00
2022-11-29T04:39:01.198Z,10.10
2022-11-29T04:41:41.312Z,10.20
2022-11-29T04:44:46.311Z,10.20
2022-11-29T04:47:34.820Z,10.20
2022-11-29T04:50:13.152Z,10.20
2022-11-29T04:52:45.896Z,10.20
2022-11-29T04:55:26.129Z,10.10
2022-11-29T04:58:19.221Z,10.10
2022-11-29T05:01:01.342Z,10.00
2022-11-29T05:03:41.432Z,10.00
2022-11-29T05:06:27.594Z,10.00
2022-11-29T05:09:06.927Z,10.00
2022-11-29T05:11:53.428Z,10.10
2022-11-29T05:14:49.155Z,10.00
2022-11-29T05:17:26.312Z,10.00
2022-11-29T05:20:13.006Z,10.00
2022-11-29T05:23:04.720Z,10.00
2022-11-29T05:25:39.752Z,9.90
2022-11-29T05:28:22.400Z,9.80
2022-11-29T05:31:06.431Z,9.70
2022-11-29T05:33:54.472Z,9.70
2022-11-29T05:37:00.074Z,9.70
2022-11-29T05:39:46.316Z,9.70
2022-11-29T05:42:38.264Z,9.70
2022-11-29T05:45:25.341Z,9.70
2022-11-29T05:48:11.549Z,9.70
2022-11-29T05:51:23.639Z,9.60
2022-11-29T05:54:20.012Z,9.70
2022-11-29T05:56:52.971Z,9.60
2022-11-29T05:59:30.786Z,9.70
2022-11-29T06:01:57.965Z,9.70
2022-11-29T06:04:48.047Z,9.80
2022-11-29T06:07:22.464Z,9.80
2022-11-29T06:10:01.855Z,9.80
2022-11-29T06:12:31.841Z,9.80
2022-11-29T06:15:27.967Z,9.80
2022-11-29T06:18:06.817Z,9.70
2022-11-29T06:21:18.514Z,9.70
2022-11-29T06:24:25.880Z,9.70
2022-11-29T06:27:08.201Z,9.70
2022-11-29T06:29:38.365Z,9.70
2022-11-29T06:32:21.584Z,9.70
2022-11-29T06:35:07.459Z,9.60
2022-11-29T06:37:48.227Z,9.60
2022-11-29T06:40:16.242Z,9.60
2022-11-29T06:42:43.632Z,9.50
2022-11-29T06:45:13.801Z,9.50
2022-11-29T06:48:06.398Z,9.50
2022-11-29T06:50:54.128Z,9.50
2022-11-29T06:53:42.019Z,9.40
2022-11-29T06:56:35.717Z,9.40
2022-11-29T06:59:08.553Z,9.40
2022-11-29T07:01:57.195Z,9.30
2022-11-29T07:04:49.316Z,9.30
2022-11-29T07:07:22.634Z,9.30
2022-11-29T07:09:53.109Z,9.20
2022-11-29T07:12:20.629Z,9.00
2022-11-29T07:14:48.291Z,9.10
2022-11-29T07:17:31.072Z,9.00
2022-11-29T07:20:12.733Z,9.00
2022-11-29T07:22:51.033Z,8.90
2022-11-29T07:25:18.139Z,8.80
2022-11-29T07:28:02.220Z,8.70
2022-11-29T07:31:02.347Z,8.70
2022-11-29T07:33:29.544Z,8.70
2022-11-29T07:36:19.428Z,8.70
2022-11-29T07:38:52.396Z,8.70
2022-11-29T07:41:36.717Z,8.70
2022-11-29T07:44:35.405Z,8.70
2022-11-29T07:47:02.743Z,8.60
2022-11-29T07:49:29.986Z,8.60
2022-11-29T07:51:57.395Z,8.60
2022-11-29T07:54:24.765Z,8.60
2022-11-29T07:56:51.909Z,8.50
2022-11-29T07:59:20.015Z,8.50
2022-11-29T08:01:47.311Z,8.60
2022-11-29T08:04:14.525Z,8.50
2022-11-29T08:06:42.174Z,8.50
2022-11-29T08:09:09.481Z,8.40
2022-11-29T08:11:36.760Z,8.40
2022-11-29T08:14:05.264Z,8.30
2022-11-29T08:16:32.866Z,8.40
2022-11-29T08:19:00.512Z,8.40
2022-11-29T08:21:27.978Z,8.40
2022-11-29T08:23:55.151Z,8.40
2022-11-29T08:26:26.778Z,8.30
2022-11-29T08:28:57.017Z,8.20
2022-11-29T08:31:24.242Z,8.20
2022-11-29T08:33:51.433Z,8.20
2022-11-29T08:36:20.073Z,8.20
2022-11-29T08:38:48.186Z,8.30
2022-11-29T08:41:17.186Z,8.30
2022-11-29T08:43:44.720Z,8.40
2022-11-29T08:46:17.974Z,8.40
2022-11-29T08:48:46.842Z,8.40
2022-11-29T08:51:14.858Z,8.40
2022-11-29T08:53:42.078Z,8.50
2022-11-29T08:57:04.574Z,8.60
2022-11-29T08:59:02.532Z,8.60
2022-11-29T09:01:30.119Z,8.70
2022-11-29T09:04:00.116Z,8.60
2022-11-29T09:06:29.850Z,8.60
2022-11-29T09:08:58.226Z,8.50
2022-11-29T09:11:26.800Z,8.50
2022-11-29T09:13:58.364Z,8.50
2022-11-29T09:16:28.772Z,8.60
2022-11-29T09:18:56.286Z,8.60
2022-11-29T09:21:25.728Z,8.60
2022-11-29T09:23:58.631Z,8.60
2022-11-29T09:26:29.140Z,8.50
2022-11-29T09:28:58.500Z,8.50
2022-11-29T09:31:27.183Z,8.60
2022-11-29T09:33:55.353Z,8.70
2022-11-29T09:36:28.118Z,8.70
2022-11-29T09:38:57.398Z,8.90
2022-11-29T09:41:36.506Z,9.00
2022-11-29T09:44:09.632Z,9.10
2022-11-29T09:47:00.914Z,9.10
2022-11-29T09:49:37.124Z,9.20
2022-11-29T09:52:22.300Z,9.20
2022-11-29T09:55:10.103Z,9.20
2022-11-29T09:57:39.635Z,9.30
2022-11-29T10:00:14.281Z,9.20
2022-11-29T10:02:47.641Z,9.30
2022-11-29T10:05:28.501Z,9.30
2022-11-29T10:08:02.219Z,9.40
2022-11-29T10:10:32.453Z,9.60
2022-11-29T10:13:15.669Z,9.60
2022-11-29T10:15:46.878Z,9.70
2022-11-29T10:18:32.300Z,9.80
2022-11-29T10:21:06.360Z,10.00
2022-11-29T10:23:38.665Z,10.20
2022-11-29T10:26:08.873Z,10.40
2022-11-29T10:28:37.263Z,10.70
2022-11-29T10:31:27.123Z,10.80
2022-11-29T10:33:56.226Z,10.70
2022-11-29T10:36:44.449Z,10.60
2022-11-29T10:39:25.708Z,10.60
2022-11-29T10:41:59.486Z,10.70
2022-11-29T10:44:27.525Z,10.80
2022-11-29T10:46:55.962Z,11.00
2022-11-29T10:49:27.540Z,11.30
2022-11-29T10:51:54.713Z,11.70
2022-11-29T10:54:42.562Z,12.20
2022-11-29T10:57:15.880Z,12.50
2022-11-29T11:00:09.906Z,12.50
2022-11-29T11:02:37.582Z,12.40
2022-11-29T11:05:13.161Z,12.30
2022-11-29T11:07:40.875Z,12.20
2022-11-29T11:10:23.220Z,12.10
2022-11-29T11:13:19.957Z,12.10
2022-11-29T11:15:47.340Z,11.90
2022-11-29T11:18:23.683Z,11.80
2022-11-29T11:20:57.236Z,11.70
2022-11-29T11:23:31.187Z,11.60
2022-11-29T11:26:00.324Z,11.50
2022-11-29T11:28:31.731Z,11.60
2022-11-29T11:31:02.272Z,11.60
2022-11-29T11:33:32.724Z,11.50
2022-11-29T11:36:12.005Z,11.60
2022-11-29T11:38:57.383Z,11.70
2022-11-29T11:41:50.465Z,11.90
2022-11-29T11:47:21.455Z,12.70
2022-11-29T11:50:02.295Z,13.90
2022-11-29T11:52:39.833Z,16.70
2022-11-29T11:55:39.232Z,20.00
2022-11-29T11:58:17.062Z,25.50
2022-11-29T12:01:03.841Z,30.20
2022-11-29T12:03:43.690Z,30.70
2022-11-29T12:06:25.930Z,28.10
2022-11-29T12:09:18.588Z,25.10
2022-11-29T12:11:49.430Z,23.20
2022-11-29T12:14:46.340Z,21.60
2022-11-29T12:17:33.665Z,20.30
2022-11-29T12:20:15.315Z,18.90
2022-11-29T12:23:08.892Z,17.70
2022-11-29T12:25:46.742Z,16.90
2022-11-29T12:28:20.306Z,16.40
2022-11-29T12:31:15.935Z,16.10
2022-11-29T12:34:00.172Z,15.90
2022-11-29T12:36:55.672Z,16.10
2022-11-29T12:39:38.694Z,15.90
2022-11-29T12:42:26.197Z,15.70
2022-11-29T12:45:29.579Z,15.60
2022-11-29T12:48:02.886Z,15.70
2022-11-29T12:50:48.919Z,16.00
2022-11-29T12:53:34.424Z,16.20
2022-11-29T12:56:11.023Z,16.10
2022-11-29T12:58:53.293Z,16.10
2022-11-29T13:01:38.586Z,16.30
2022-11-29T13:04:23.805Z,18.40
2022-11-29T13:07:15.583Z,20.40
2022-11-29T13:10:03.352Z,20.20
2022-11-29T13:12:51.316Z,19.10
2022-11-29T13:15:21.316Z,18.00
2022-11-29T13:18:00.369Z,16.90
2022-11-29T13:20:37.624Z,16.10
2022-11-29T13:23:16.233Z,15.50
2022-11-29T13:25:47.090Z,15.20
2022-11-29T13:28:26.301Z,15.00
2022-11-29T13:30:58.874Z,14.90
2022-11-29T13:33:28.987Z,14.80
2022-11-29T13:36:19.201Z,14.90
2022-11-29T13:39:08.755Z,15.10
2022-11-29T13:41:55.304Z,15.10
2022-11-29T13:44:39.199Z,16.10
2022-11-29T13:47:12.499Z,17.40
2022-11-29T13:50:06.175Z,19.00
2022-11-29T13:52:42.409Z,20.70
2022-11-29T13:55:12.593Z,22.30
2022-11-29T13:58:17.768Z,23.50
2022-11-29T14:00:45.320Z,24.40
2022-11-29T14:03:25.930Z,25.00
2022-11-29T14:06:13.261Z,25.30
2022-11-29T14:09:10.805Z,25.20
2022-11-29T14:11:53.746Z,24.60
2022-11-29T14:14:52.036Z,23.90
2022-11-29T14:17:47.510Z,22.80
2022-11-29T14:20:24.884Z,21.70
2022-11-29T14:23:04.305Z,21.10
2022-11-29T14:28:22.428Z,20.60
2022-11-29T14:31:02.992Z,20.20
2022-11-29T14:34:01.865Z,19.60
2022-11-29T14:36:49.938Z,18.60
2022-11-29T14:39:35.138Z,17.90
2022-11-29T14:42:18.981Z,17.50
2022-11-29T14:44:56.038Z,17.40
2022-11-29T14:47:32.353Z,17.20
2022-11-29T14:50:04.052Z,16.70
2022-11-29T14:52:39.436Z,16.30
2022-11-29T14:55:08.521Z,15.70
2022-11-29T14:57:51.560Z,15.30
2022-11-29T15:00:32.490Z,14.90
2022-11-29T15:03:09.672Z,14.50
2022-11-29T15:05:50.779Z,14.10
2022-11-29T15:08:32.952Z,13.60
2022-11-29T15:11:08.095Z,13.20
2022-11-29T15:13:36.870Z,13.00
2022-11-29T15:16:10.113Z,12.70
2022-11-29T15:18:52.454Z,12.50
2022-11-29T15:21:50.207Z,12.30
2022-11-29T15:24:18.129Z,12.10
2022-11-29T15:27:00.901Z,11.80
2022-11-29T15:29:29.919Z,11.60
2022-11-29T15:32:00.717Z,11.30
2022-11-29T15:34:33.839Z,11.10
2022-11-29T15:37:01.672Z,11.00
2022-11-29T15:39:33.004Z,10.80
2022-11-29T15:42:19.329Z,10.60
2022-11-29T15:44:48.806Z,10.50
2022-11-29T15:47:25.274Z,10.50
2022-11-29T15:49:54.040Z,10.50
2022-11-29T15:52:41.583Z,10.50
2022-11-29T15:55:14.041Z,10.60
2022-11-29T15:57:44.550Z,10.60
2022-11-29T16:00:19.891Z,10.70
2022-11-29T16:02:51.986Z,10.80
2022-11-29T16:05:40.736Z,10.80
2022-11-29T16:08:14.608Z,10.90
2022-11-29T16:10:47.397Z,10.80
2022-11-29T16:13:32.148Z,10.90
2022-11-29T16:16:22.422Z,10.90
2022-11-29T16:18:50.728Z,11.00
2022-11-29T16:21:28.807Z,11.00
2022-11-29T16:23:57.195Z,11.00
2022-11-29T16:26:28.591Z,11.00
2022-11-29T16:28:57.853Z,11.00
2022-11-29T16:31:34.785Z,11.00
2022-11-29T16:34:14.849Z,11.00
2022-11-29T16:36:42.138Z,11.10
2022-11-29T16:39:25.283Z,11.10
2022-11-29T16:42:13.759Z,11.20
2022-11-29T16:44:41.229Z,11.10
2022-11-29T16:47:29.261Z,11.10
2022-11-29T16:50:02.621Z,11.10
2022-11-29T16:52:32.249Z,11.20
2022-11-29T16:54:59.882Z,11.20
2022-11-29T16:57:28.690Z,11.20
2022-11-29T16:59:55.840Z,11.10
2022-11-29T17:02:23.504Z,11.20
2022-11-29T17:04:51.498Z,11.20
2022-11-29T17:07:26.930Z,12.30
2022-11-29T17:09:54.616Z,11.20
2022-11-29T17:12:22.184Z,11.20
2022-11-29T17:14:49.489Z,11.20
2022-11-29T17:17:18.770Z,11.30
2022-11-29T17:19:46.172Z,11.30
2022-11-29T17:22:13.319Z,11.30
2022-11-29T17:24:46.229Z,11.30
2022-11-29T17:27:15.064Z,11.20
2022-11-29T17:29:42.197Z,11.20
2022-11-29T17:32:09.489Z,11.10
2022-11-29T17:34:36.688Z,11.10
2022-11-29T17:37:03.989Z,11.10
2022-11-29T17:39:31.160Z,11.10
2022-11-29T17:41:58.345Z,11.10
2022-11-29T17:44:25.685Z,11.00
2022-11-29T17:46:52.866Z,11.00
2022-11-29T17:49:20.080Z,11.00
2022-11-29T17:51:52.353Z,11.00
2022-11-29T17:54:24.076Z,11.00
2022-11-29T17:56:51.855Z,11.00
2022-11-29T17:59:19.188Z,11.00
2022-11-29T18:01:49.230Z,10.90
2022-11-29T18:04:17.742Z,10.90
2022-11-29T18:06:50.146Z,10.90
2022-11-29T18:09:18.763Z,10.90
2022-11-29T18:11:49.135Z,10.90
2022-11-29T18:14:28.153Z,10.90
2022-11-29T18:16:55.572Z,11.00
2022-11-29T18:19:23.236Z,11.00
2022-11-29T18:21:51.123Z,11.10
2022-11-29T18:24:18.651Z,11.10
2022-11-29T18:26:45.929Z,11.20
2022-11-29T18:29:13.276Z,11.20
2022-11-29T18:31:43.462Z,11.30
2022-11-29T18:34:12.975Z,11.30
2022-11-29T18:36:43.074Z,11.30
2022-11-29T18:39:16.669Z,11.30
2022-11-29T18:41:47.083Z,11.40
2022-11-29T18:44:16.434Z,11.40
2022-11-29T18:46:45.063Z,11.40
2022-11-29T18:49:16.127Z,11.40
2022-11-29T18:51:45.791Z,11.40
2022-11-29T18:54:14.870Z,11.40
2022-11-29T18:56:43.696Z,11.40
2022-11-29T18:59:14.643Z,11.40
2022-11-29T19:01:45.062Z,11.30
2022-11-29T19:04:15.247Z,11.30
2022-11-29T19:06:43.259Z,11.40
2022-11-29T19:09:21.281Z,11.40
2022-11-29T19:11:49.693Z,11.40
2022-11-29T19:14:16.882Z,11.40
2022-11-29T19:16:46.157Z,11.40
2022-11-29T19:19:13.571Z,11.30
2022-11-29T19:21:41.254Z,11.30
2022-11-29T19:24:15.531Z,11.20
2022-11-29T19:26:45.068Z,11.10
2022-11-29T19:29:13.732Z,11.20
2022-11-29T19:31:41.583Z,11.10
2022-11-29T19:34:08.766Z,11.00
2022-11-29T19:36:42.826Z,11.00
2022-11-29T19:39:16.237Z,10.90
2022-11-29T19:41:45.505Z,10.90
2022-11-29T19:44:12.817Z,10.90
2022-11-29T19:46:45.768Z,10.90
2022-11-29T19:49:13.240Z,11.00
2022-11-29T19:51:40.603Z,11.00
2022-11-29T19:54:09.149Z,11.00
2022-11-29T19:56:36.828Z,11.10
2022-11-29T19:59:05.375Z,11.00
2022-11-29T20:01:40.364Z,11.00
2022-11-29T20:04:10.333Z,11.10
2022-11-29T20:06:37.578Z,11.10
2022-11-29T20:09:05.089Z,11.10
2022-11-29T20:11:32.254Z,11.10
2022-11-29T20:14:01.838Z,11.10
2022-11-29T20:16:30.034Z,11.10
2022-11-29T20:18:57.991Z,11.10
2022-11-29T20:21:30.662Z,11.10
2022-11-29T20:24:03.444Z,11.10
2022-11-29T20:26:33.086Z,11.00
2022-11-29T20:29:02.008Z,11.00
2022-11-29T20:31:29.637Z,11.00
2022-11-29T20:33:59.693Z,11.00
2022-11-29T20:36:37.588Z,10.90
2022-11-29T20:39:19.551Z,10.80
2022-11-29T20:41:54.515Z,10.80
2022-11-29T20:44:37.663Z,10.80
2022-11-29T20:47:16.380Z,10.80
2022-11-29T20:49:43.764Z,10.90
2022-11-29T20:52:33.183Z,10.90
2022-11-29T20:55:00.717Z,10.90
2022-11-29T20:57:28.507Z,11.00
2022-11-29T20:59:55.657Z,11.00
2022-11-29T21:02:23.283Z,11.00
2022-11-29T21:04:50.732Z,11.00
2022-11-29T21:07:17.966Z,11.00
2022-11-29T21:09:45.661Z,11.00
2022-11-29T21:12:13.485Z,11.10
2022-11-29T21:14:40.928Z,11.10
2022-11-29T21:17:08.900Z,11.10
2022-11-29T21:19:36.655Z,11.10
2022-11-29T21:22:03.797Z,11.10
2022-11-29T21:25:08.559Z,11.10
2022-11-29T21:27:36.327Z,11.20
2022-11-29T21:30:07.294Z,11.20
2022-11-29T21:32:34.776Z,11.20
2022-11-29T21:35:01.902Z,11.20
2022-11-29T21:37:30.661Z,11.20
2022-11-29T21:39:58.049Z,11.20
2022-11-29T21:42:25.214Z,11.30
2022-11-29T21:44:52.408Z,11.30
2022-11-29T21:47:20.208Z,11.30
2022-11-29T21:49:48.893Z,11.30
2022-11-29T21:52:21.988Z,11.30
2022-11-29T21:54:50.322Z,11.30
2022-11-29T21:57:17.471Z,11.30
2022-11-29T21:59:44.689Z,11.30
2022-11-29T22:02:12.036Z,11.30
2022-11-29T22:04:39.248Z,11.30
2022-11-29T22:07:06.377Z,11.30
2022-11-29T22:09:33.489Z,11.30
2022-11-29T22:12:06.624Z,11.30
2022-11-29T22:14:47.038Z,11.30
2022-11-29T22:17:14.369Z,11.40
2022-11-29T22:19:42.446Z,11.30
2022-11-29T22:22:10.812Z,11.30
2022-11-29T22:24:38.050Z,11.30
2022-11-29T22:27:05.268Z,11.20
2022-11-29T22:29:32.523Z,11.20
2022-11-29T22:32:01.055Z,11.30
2022-11-29T22:34:28.409Z,11.30
2022-11-29T22:36:55.765Z,11.30
2022-11-29T22:39:23.933Z,11.30
2022-11-29T22:41:54.688Z,11.30
2022-11-29T22:44:23.390Z,11.30
2022-11-29T22:46:51.169Z,11.20
2022-11-29T22:49:18.442Z,11.20
2022-11-29T22:51:45.611Z,11.20
2022-11-29T22:54:15.472Z,11.20
2022-11-29T22:56:44.240Z,11.20
2022-11-29T22:59:11.660Z,11.00
2022-11-29T23:01:40.852Z,11.00
2022-11-29T23:04:10.209Z,11.00
2022-11-29T23:06:40.402Z,10.90
2022-11-29T23:09:15.925Z,10.80
2022-11-29T23:11:45.015Z,10.70
2022-11-29T23:14:12.670Z,10.70
2022-11-29T23:16:40.501Z,10.70
2022-11-29T23:19:08.056Z,10.60
2022-11-29T23:21:38.384Z,10.50
2022-11-29T23:24:06.409Z,10.50
2022-11-29T23:26:40.023Z,10.50
2022-11-29T23:29:10.245Z,10.50
2022-11-29T23:31:37.838Z,10.50
2022-11-29T23:34:05.449Z,10.40
2022-11-29T23:36:33.381Z,10.50
2022-11-29T23:39:00.986Z,10.50
2022-11-29T23:41:28.233Z,10.50
2022-11-29T23:43:55.485Z,10.40
2022-11-29T23:46:24.358Z,10.50
2022-11-29T23:48:52.298Z,10.40
2022-11-29T23:51:20.370Z,10.40
2022-11-29T23:53:54.105Z,10.40
2022-11-29T23:56:22.723Z,10.40
2022-11-29T23:58:50.277Z,10.30
